Time;durP1;ratioP1;P1;durP2;ratioP2;P2;SDS_P1;SDS_P2;PMS_P1;PMS_P2;Temp;Humidity;BMP_temperature;BMP_pressure;BME280_temperature;BME280_humidity;BME280_pressure;Samples;Min_cycle;Max_cycle;Signal;HPM_P1;HPM_P2
2021/03/08 00:01:45;;;;;;;38.85;27.10;;;10.10;99.90;;;;;;5094363;28;20031;-80
2021/03/08 00:04:10;;;;;;;38.17;26.38;;;10.10;99.90;;;;;;5094039;28;20051;-80
2021/03/08 00:06:36;;;;;;;39.60;27.65;;;10.10;99.90;;;;;;5094209;28;20488;-80
2021/03/08 00:09:02;;;;;;;36.70;26.80;;;10.10;99.90;;;;;;5093921;28;20121;-80
2021/03/08 00:11:28;;;;;;;39.22;26.70;;;10.00;99.90;;;;;;5094031;28;20533;-81
2021/03/08 00:13:53;;;;;;;35.28;25.98;;;10.00;99.90;;;;;;5093614;28;20044;-81
2021/03/08 00:16:19;;;;;;;37.45;26.25;;;10.00;99.90;;;;;;5094267;28;20028;-81
2021/03/08 00:18:44;;;;;;;34.53;24.70;;;10.00;99.90;;;;;;5075845;28;20024;-81
2021/03/08 00:21:10;;;;;;;36.63;25.60;;;10.00;99.90;;;;;;5093318;28;20026;-81
2021/03/08 00:23:36;;;;;;;38.85;25.10;;;10.00;99.90;;;;;;5093751;28;20028;-81
2021/03/08 00:26:01;;;;;;;38.22;24.88;;;10.00;99.90;;;;;;5093869;28;20345;-81
2021/03/08 00:28:27;;;;;;;32.50;24.08;;;10.00;99.90;;;;;;5093894;28;20040;-81
2021/03/08 00:30:52;;;;;;;37.72;24.58;;;10.00;99.90;;;;;;5094107;28;20054;-81
2021/03/08 00:33:18;;;;;;;35.05;23.70;;;10.00;99.90;;;;;;5093127;28;20036;-81
2021/03/08 00:35:44;;;;;;;31.10;22.23;;;10.10;99.90;;;;;;5093706;28;20024;-81
2021/03/08 00:38:09;;;;;;;27.13;20.52;;;10.10;99.90;;;;;;5093353;28;20047;-81
2021/03/08 00:40:35;;;;;;;25.65;19.38;;;10.00;99.90;;;;;;5093751;28;20024;-81
2021/03/08 00:43:00;;;;;;;26.75;20.25;;;10.00;99.90;;;;;;5093618;28;20039;-81
2021/03/08 00:45:26;;;;;;;29.77;19.58;;;10.10;99.90;;;;;;5093482;28;20067;-81
2021/03/08 00:47:52;;;;;;;28.95;20.75;;;10.00;99.90;;;;;;5093607;28;20028;-81
2021/03/08 00:50:21;;;;;;;27.30;20.98;;;10.00;99.90;;;;;;5093250;28;20028;-81
2021/03/08 00:52:46;;;;;;;30.42;20.75;;;10.10;99.90;;;;;;5093256;28;20041;-81
2021/03/08 00:55:14;;;;;;;28.75;20.63;;;10.00;99.90;;;;;;5093559;28;20148;-81
2021/03/08 00:57:40;;;;;;;30.77;21.23;;;10.00;99.90;;;;;;5093304;28;20013;-81
2021/03/08 01:00:09;;;;;;;30.00;20.70;;;9.90;99.90;;;;;;5091676;28;20026;-81
2021/03/08 01:02:35;;;;;;;31.25;20.95;;;10.00;99.90;;;;;;5092900;28;20519;-81
2021/03/08 01:05:01;;;;;;;32.38;21.73;;;9.90;99.90;;;;;;5092842;28;20035;-82
2021/03/08 01:07:26;;;;;;;30.85;21.77;;;9.90;99.90;;;;;;5093156;28;20089;-81
2021/03/08 01:09:52;;;;;;;31.10;22.45;;;9.70;99.90;;;;;;5093072;28;20055;-81
2021/03/08 01:12:18;;;;;;;33.15;22.50;;;9.80;99.90;;;;;;5092719;28;20052;-81
2021/03/08 01:14:44;;;;;;;32.05;23.10;;;9.70;99.90;;;;;;5092939;28;20383;-81
2021/03/08 01:17:11;;;;;;;33.17;24.00;;;9.70;99.90;;;;;;5093235;28;20024;-81
2021/03/08 01:19:36;;;;;;;35.25;22.92;;;9.70;99.90;;;;;;5093322;28;20060;-81
2021/03/08 01:22:02;;;;;;;34.80;22.98;;;9.70;99.90;;;;;;5092760;28;20043;-81
2021/03/08 01:24:28;;;;;;;35.53;24.08;;;9.80;99.90;;;;;;5093164;28;20036;-81
2021/03/08 01:26:53;;;;;;;36.78;24.48;;;10.00;99.90;;;;;;5093023;28;20021;-81
2021/03/08 01:29:19;;;;;;;33.80;24.10;;;10.10;99.90;;;;;;5092550;28;20039;-81
2021/03/08 01:31:44;;;;;;;36.08;24.42;;;10.10;99.90;;;;;;5082449;28;20107;-81
2021/03/08 01:34:10;;;;;;;35.70;24.23;;;10.20;99.90;;;;;;5087278;28;20075;-81
2021/03/08 01:36:36;;;;;;;36.00;24.65;;;10.20;99.90;;;;;;5097069;28;20047;-81
2021/03/08 01:39:03;;;;;;;36.72;26.60;;;10.30;99.90;;;;;;5096950;28;20053;-81
2021/03/08 01:41:28;;;;;;;37.33;25.42;;;10.20;99.90;;;;;;5097194;28;20023;-81
2021/03/08 01:43:54;;;;;;;37.58;26.58;;;10.20;99.90;;;;;;5096735;28;20028;-81
2021/03/08 01:46:20;;;;;;;37.42;26.55;;;10.10;99.90;;;;;;5096933;28;20594;-81
2021/03/08 01:48:45;;;;;;;36.83;26.90;;;10.30;99.90;;;;;;5096627;28;20419;-81
2021/03/08 01:51:11;;;;;;;41.63;29.33;;;10.30;99.90;;;;;;5096984;28;20024;-81
2021/03/08 01:53:37;;;;;;;35.03;27.33;;;10.20;99.90;;;;;;5096805;28;20024;-81
2021/03/08 01:56:04;;;;;;;36.38;27.77;;;10.30;99.90;;;;;;5096568;28;20103;-81
2021/03/08 01:58:30;;;;;;;35.80;26.17;;;10.30;99.90;;;;;;5096395;28;20145;-82
2021/03/08 02:00:56;;;;;;;35.58;26.88;;;10.30;99.90;;;;;;5096901;28;20032;-82
2021/03/08 02:03:23;;;;;;;33.78;25.75;;;10.20;99.90;;;;;;5096102;28;20046;-81
2021/03/08 02:05:48;;;;;;;36.75;26.88;;;10.30;99.90;;;;;;5096618;28;20526;-81
2021/03/08 02:08:20;;;;;;;36.30;24.65;;;10.10;99.90;;;;;;5096469;28;20020;-81
2021/03/08 02:10:47;;;;;;;33.17;25.60;;;10.00;99.90;;;;;;5096396;28;20019;-81
2021/03/08 02:13:31;;;;;;;35.88;26.00;;;10.10;99.90;;;;;;5096103;28;20027;-81
2021/03/08 02:16:23;;;;;;;37.17;26.17;;;10.10;99.90;;;;;;5078495;28;20030;-81
2021/03/08 02:19:13;;;;;;;37.72;27.60;;;10.10;99.90;;;;;;5096179;28;20031;-81
2021/03/08 02:22:28;;;;;;;36.17;26.67;;;10.10;99.90;;;;;;5096489;28;20056;-81
2021/03/08 02:25:13;;;;;;;38.10;27.83;;;10.00;99.90;;;;;;5096372;28;20157;-81
2021/03/08 02:27:51;;;;;;;38.50;27.63;;;10.00;99.90;;;;;;5095549;28;20435;-81
2021/03/08 02:30:36;;;;;;;42.42;30.45;;;10.00;99.90;;;;;;5095527;28;20027;-81
2021/03/08 02:33:05;;;;;;;50.42;37.47;;;10.00;99.90;;;;;;5095582;28;20114;-81
2021/03/08 02:35:34;;;;;;;51.22;41.03;;;10.00;99.90;;;;;;5096153;28;20046;-81
2021/03/08 02:38:04;;;;;;;59.83;45.90;;;10.00;99.90;;;;;;5095800;28;20016;-81
2021/03/08 02:40:41;;;;;;;58.05;44.80;;;10.00;99.90;;;;;;5096055;28;20035;-81
2021/03/08 02:43:20;;;;;;;56.05;42.60;;;10.00;99.90;;;;;;5075967;28;20029;-81
2021/03/08 02:45:50;;;;;;;55.25;42.45;;;9.90;99.90;;;;;;5075532;28;20056;-81
2021/03/08 02:48:19;;;;;;;54.35;42.15;;;9.90;99.90;;;;;;5075000;28;20388;-81
2021/03/08 02:50:45;;;;;;;56.28;43.17;;;9.80;99.90;;;;;;5075307;28;20029;-81
2021/03/08 02:53:13;;;;;;;58.30;42.25;;;9.80;99.90;;;;;;5075334;28;20031;-81
2021/03/08 02:55:57;;;;;;;50.58;36.78;;;9.80;99.90;;;;;;5077347;28;20016;-81
2021/03/08 02:58:25;;;;;;;32.88;25.33;;;9.80;99.90;;;;;;5095635;28;20016;-81
2021/03/08 03:00:53;;;;;;;33.05;23.73;;;9.70;99.90;;;;;;5095421;28;20103;-81
2021/03/08 03:03:21;;;;;;;32.83;22.85;;;9.70;99.90;;;;;;5094853;28;20047;-81
2021/03/08 03:05:47;;;;;;;31.77;21.85;;;9.60;99.90;;;;;;5095170;28;20035;-81
2021/03/08 03:08:14;;;;;;;30.63;20.70;;;9.60;99.90;;;;;;5095411;28;20068;-81
2021/03/08 03:10:41;;;;;;;31.70;22.70;;;9.50;99.90;;;;;;5095366;28;20426;-81
2021/03/08 03:13:07;;;;;;;30.30;22.25;;;9.50;99.90;;;;;;5095182;28;20573;-80
2021/03/08 03:15:37;;;;;;;32.83;24.35;;;9.50;99.90;;;;;;5095036;28;20391;-81
2021/03/08 03:18:06;;;;;;;37.80;26.90;;;9.60;99.90;;;;;;5094926;28;20012;-81
2021/03/08 03:20:33;;;;;;;38.72;28.83;;;9.60;99.90;;;;;;5094729;28;21065;-81
2021/03/08 03:23:00;;;;;;;36.25;25.60;;;9.70;99.90;;;;;;5095346;28;20020;-80
2021/03/08 03:25:26;;;;;;;32.50;24.50;;;9.70;99.90;;;;;;5094973;28;20028;-81
2021/03/08 03:27:53;;;;;;;33.90;24.55;;;9.60;99.90;;;;;;5094878;28;20073;-81
2021/03/08 03:30:21;;;;;;;32.42;24.48;;;9.60;99.90;;;;;;5094515;28;20396;-81
2021/03/08 03:32:48;;;;;;;36.55;23.60;;;9.60;99.90;;;;;;5094798;28;20549;-81
2021/03/08 03:35:15;;;;;;;33.80;23.52;;;9.50;99.90;;;;;;5075069;28;20075;-81
2021/03/08 03:37:43;;;;;;;32.17;24.73;;;9.40;99.90;;;;;;5076311;28;20468;-81
2021/03/08 03:40:13;;;;;;;35.97;24.88;;;9.40;99.90;;;;;;5060869;28;20392;-81
2021/03/08 03:42:41;;;;;;;37.25;25.65;;;9.40;99.90;;;;;;5074605;28;20046;-81
2021/03/08 03:45:08;;;;;;;46.90;32.47;;;9.40;99.90;;;;;;5074196;28;20020;-81
2021/03/08 03:47:34;;;;;;;47.08;34.45;;;9.60;99.90;;;;;;5074106;28;20043;-81
2021/03/08 03:50:00;;;;;;;42.47;31.30;;;9.50;99.90;;;;;;5074154;28;20025;-81
2021/03/08 03:52:26;;;;;;;38.00;25.48;;;9.60;99.90;;;;;;5074366;28;20017;-81
2021/03/08 03:54:52;;;;;;;31.70;23.10;;;9.50;99.90;;;;;;5077678;28;20393;-81
2021/03/08 03:57:17;;;;;;;30.77;23.85;;;9.50;99.90;;;;;;5093162;28;20016;-81
2021/03/08 03:59:53;;;;;;;32.78;23.75;;;9.50;99.90;;;;;;5093974;28;20099;-81
2021/03/08 04:02:29;;;;;;;35.47;23.88;;;9.40;99.90;;;;;;5094001;28;20056;-81
2021/03/08 04:04:59;;;;;;;33.40;24.80;;;9.40;99.90;;;;;;5094476;28;20040;-81
2021/03/08 04:07:25;;;;;;;32.70;23.80;;;9.40;99.90;;;;;;5094177;28;20024;-81
2021/03/08 04:09:54;;;;;;;34.40;24.42;;;9.40;99.90;;;;;;5093938;28;20047;-81
2021/03/08 04:12:24;;;;;;;35.83;24.42;;;9.40;99.90;;;;;;5094064;28;20048;-81
2021/03/08 04:14:53;;;;;;;35.65;23.75;;;9.40;99.90;;;;;;5093935;28;20020;-81
2021/03/08 04:17:19;;;;;;;35.92;24.50;;;9.40;99.90;;;;;;5094296;28;20027;-81
2021/03/08 04:19:45;;;;;;;33.55;23.70;;;9.50;99.90;;;;;;5093875;28;20028;-81
2021/03/08 04:22:11;;;;;;;35.35;24.45;;;9.60;99.90;;;;;;5093267;28;20047;-81
2021/03/08 04:24:40;;;;;;;34.00;25.25;;;9.60;99.90;;;;;;5093963;28;20040;-81
2021/03/08 04:27:09;;;;;;;36.42;26.13;;;9.60;99.90;;;;;;5093929;28;20023;-81
2021/03/08 04:29:40;;;;;;;36.47;24.65;;;9.50;99.90;;;;;;5093421;28;20085;-81
2021/03/08 04:32:10;;;;;;;37.92;24.73;;;9.60;99.90;;;;;;5093584;28;20048;-81
2021/03/08 04:34:37;;;;;;;33.50;24.95;;;9.50;99.90;;;;;;5093341;28;20032;-81
2021/03/08 04:37:03;;;;;;;35.42;25.05;;;9.50;99.90;;;;;;5093563;28;20022;-81
2021/03/08 04:39:33;;;;;;;32.92;24.83;;;9.50;99.90;;;;;;5093521;28;20403;-81
2021/03/08 04:42:00;;;;;;;38.58;24.88;;;9.40;99.90;;;;;;5093334;28;20051;-81
2021/03/08 04:44:26;;;;;;;36.58;25.60;;;9.50;99.90;;;;;;5093163;28;20060;-81
2021/03/08 04:46:52;;;;;;;36.65;25.30;;;9.40;99.90;;;;;;5093645;28;20051;-81
2021/03/08 04:49:19;;;;;;;35.85;25.77;;;9.30;99.90;;;;;;5093424;28;20089;-81
2021/03/08 04:51:48;;;;;;;36.72;25.90;;;9.30;99.90;;;;;;5093374;28;20027;-81
2021/03/08 04:54:17;;;;;;;36.53;25.98;;;9.20;99.90;;;;;;5093314;28;20032;-81
2021/03/08 04:56:44;;;;;;;37.72;27.25;;;9.20;99.90;;;;;;5075353;28;20020;-81
2021/03/08 04:59:11;;;;;;;36.90;26.73;;;9.10;99.90;;;;;;5093051;28;20020;-81
2021/03/08 05:01:39;;;;;;;39.80;27.27;;;9.20;99.90;;;;;;5093600;28;20027;-81
2021/03/08 05:04:07;;;;;;;41.08;28.52;;;9.10;99.90;;;;;;5092826;28;20113;-81
2021/03/08 05:06:38;;;;;;;37.67;27.30;;;9.00;99.90;;;;;;5092365;28;20023;-81
2021/03/08 05:09:05;;;;;;;36.90;29.05;;;9.10;99.90;;;;;;5093306;28;20152;-81
2021/03/08 05:11:34;;;;;;;43.22;31.90;;;9.10;99.90;;;;;;5092932;28;20024;-82
2021/03/08 05:14:03;;;;;;;42.33;31.42;;;9.40;99.90;;;;;;5092884;28;20024;-81
2021/03/08 05:16:30;;;;;;;48.88;37.97;;;9.00;99.90;;;;;;5093403;28;20024;-81
2021/03/08 05:18:57;;;;;;;55.17;41.85;;;9.00;99.90;;;;;;5092744;28;20020;-81
2021/03/08 05:21:24;;;;;;;42.80;32.03;;;9.50;99.90;;;;;;5093009;28;20040;-81
2021/03/08 05:23:50;;;;;;;47.25;32.17;;;9.40;99.90;;;;;;5093254;28;20036;-81
2021/03/08 05:26:16;;;;;;;41.10;30.02;;;8.80;99.90;;;;;;5091952;28;20522;-81
2021/03/08 05:28:42;;;;;;;40.33;31.88;;;8.80;99.90;;;;;;5092598;28;20063;-81
2021/03/08 05:31:09;;;;;;;44.90;33.80;;;9.30;99.90;;;;;;5093126;28;20052;-81
2021/03/08 05:33:37;;;;;;;39.75;30.92;;;9.30;99.90;;;;;;5092741;28;20085;-81
2021/03/08 05:36:07;;;;;;;39.95;29.67;;;8.90;99.90;;;;;;5092951;28;20016;-81
2021/03/08 05:38:34;;;;;;;37.47;27.75;;;8.90;99.90;;;;;;5092912;28;20024;-81
2021/03/08 05:41:24;;;;;;;37.47;26.58;;;8.70;99.90;;;;;;5092262;28;20024;-81
2021/03/08 05:43:53;;;;;;;38.08;25.55;;;9.00;99.90;;;;;;5092862;28;20082;-81
2021/03/08 05:46:41;;;;;;;34.65;24.10;;;8.60;99.90;;;;;;5093133;28;20020;-81
2021/03/08 05:49:23;;;;;;;34.83;23.65;;;8.50;99.90;;;;;;5092892;28;20027;-81
2021/03/08 05:52:15;;;;;;;33.17;23.77;;;8.40;99.90;;;;;;5092849;28;20116;-81
2021/03/08 05:55:16;;;;;;;32.50;23.33;;;8.40;99.90;;;;;;5092312;28;20039;-81
2021/03/08 05:57:57;;;;;;;31.35;23.58;;;8.50;99.90;;;;;;5092347;28;20020;-81
2021/03/08 06:00:27;;;;;;;31.55;22.75;;;8.40;99.90;;;;;;5092612;28;20024;-81
2021/03/08 06:02:58;;;;;;;31.90;23.13;;;8.40;99.90;;;;;;5092018;28;20068;-81
2021/03/08 06:05:48;;;;;;;33.85;23.85;;;8.20;99.90;;;;;;5092819;28;20035;-80
2021/03/08 06:08:31;;;;;;;32.90;22.20;;;8.40;99.90;;;;;;5079133;28;20072;-80
2021/03/08 06:11:11;;;;;;;30.02;22.65;;;8.40;99.90;;;;;;5091994;28;20026;-80
2021/03/08 06:13:49;;;;;;;35.10;23.55;;;8.30;99.90;;;;;;5092348;28;20024;-80
2021/03/08 06:16:17;;;;;;;32.72;22.52;;;8.30;99.90;;;;;;5092777;28;20028;-80
2021/03/08 06:18:48;;;;;;;30.92;22.83;;;8.30;99.90;;;;;;5092646;28;20407;-80
2021/03/08 06:21:15;;;;;;;30.25;21.23;;;8.40;99.90;;;;;;5095789;28;20055;-80
2021/03/08 06:23:42;;;;;;;31.27;22.35;;;8.40;99.90;;;;;;5095738;28;20418;-80
2021/03/08 06:26:13;;;;;;;27.75;22.25;;;8.30;99.90;;;;;;5094520;28;20059;-80
2021/03/08 06:28:39;;;;;;;31.33;20.55;;;8.30;99.90;;;;;;5096527;28;20012;-81
2021/03/08 06:31:06;;;;;;;29.38;20.02;;;8.10;99.90;;;;;;5095755;28;20541;-80
2021/03/08 06:33:33;;;;;;;28.90;20.70;;;8.10;99.90;;;;;;5095636;28;20024;-80
2021/03/08 06:36:01;;;;;;;30.42;20.92;;;8.00;99.90;;;;;;5095649;28;20016;-80
2021/03/08 06:38:28;;;;;;;28.55;19.65;;;8.00;99.90;;;;;;5095685;28;20020;-80
2021/03/08 06:40:54;;;;;;;31.30;20.13;;;8.30;99.90;;;;;;5077036;28;20031;-80
2021/03/08 06:43:20;;;;;;;31.55;20.25;;;8.00;99.90;;;;;;5096018;28;20483;-80
2021/03/08 06:45:46;;;;;;;27.67;19.77;;;7.90;99.90;;;;;;5095805;28;20035;-80
2021/03/08 06:48:12;;;;;;;26.50;19.55;;;8.10;99.90;;;;;;5084426;28;20055;-79
2021/03/08 06:50:38;;;;;;;30.85;20.52;;;8.00;99.90;;;;;;5092258;28;20511;-79
2021/03/08 06:53:03;;;;;;;30.25;20.23;;;8.00;99.90;;;;;;5078564;28;20078;-79
2021/03/08 06:55:29;;;;;;;29.13;21.58;;;8.10;99.90;;;;;;5079483;28;20025;-79
2021/03/08 06:57:55;;;;;;;31.35;20.98;;;8.00;99.90;;;;;;5093168;28;20020;-79
2021/03/08 07:00:21;;;;;;;28.83;21.30;;;8.10;99.90;;;;;;5092270;28;20775;-79
2021/03/08 07:02:48;;;;;;;28.40;20.98;;;8.00;99.90;;;;;;5079096;28;20068;-79
2021/03/08 07:05:23;;;;;;;31.02;21.08;;;8.50;99.90;;;;;;5074637;28;20020;-79
2021/03/08 07:08:00;;;;;;;30.23;21.15;;;8.00;99.90;;;;;;5089478;28;20537;-79
2021/03/08 07:10:35;;;;;;;28.48;20.85;;;8.10;99.90;;;;;;5078107;28;20550;-79
2021/03/08 07:13:02;;;;;;;29.90;21.05;;;7.90;99.90;;;;;;5079755;28;20163;-79
2021/03/08 07:15:28;;;;;;;28.92;21.05;;;7.90;99.90;;;;;;5092481;28;20375;-80
2021/03/08 07:17:53;;;;;;;31.60;21.67;;;8.00;99.90;;;;;;5088570;28;20024;-80
2021/03/08 07:20:19;;;;;;;29.55;20.77;;;8.40;99.90;;;;;;5074903;28;20028;-80
2021/03/08 07:22:55;;;;;;;31.27;21.70;;;7.90;99.90;;;;;;5084063;28;20012;-80
2021/03/08 07:25:32;;;;;;;29.88;20.83;;;8.00;99.90;;;;;;5075206;28;20031;-79
2021/03/08 07:28:03;;;;;;;28.33;19.60;;;8.20;99.90;;;;;;5089680;28;20016;-80
2021/03/08 07:30:30;;;;;;;28.00;18.90;;;8.00;99.90;;;;;;5093747;28;20051;-79
2021/03/08 07:33:05;;;;;;;28.35;19.67;;;8.00;99.90;;;;;;5086763;28;20047;-80
2021/03/08 07:35:34;;;;;;;26.90;18.92;;;8.00;99.90;;;;;;5084421;28;20024;-80
2021/03/08 07:38:00;;;;;;;27.15;19.17;;;8.20;99.90;;;;;;5080923;28;20031;-80
2021/03/08 07:40:26;;;;;;;26.73;19.17;;;8.30;99.90;;;;;;5085600;28;20017;-79
2021/03/08 07:42:52;;;;;;;27.05;19.25;;;8.40;99.90;;;;;;5082003;28;20023;-81
2021/03/08 07:45:20;;;;;;;28.50;19.23;;;8.60;99.90;;;;;;5082380;28;20016;-81
2021/03/08 07:47:46;;;;;;;25.90;19.70;;;8.60;99.90;;;;;;5094145;28;20044;-80
2021/03/08 07:50:32;;;;;;;30.02;19.38;;;8.80;99.90;;;;;;5090782;28;20114;-80
2021/03/08 07:52:57;;;;;;;27.70;18.83;;;9.40;99.90;;;;;;5088534;28;20036;-80
2021/03/08 07:55:36;;;;;;;28.60;19.38;;;9.00;99.90;;;;;;5084427;28;20069;-81
2021/03/08 07:58:05;;;;;;;27.27;18.50;;;9.50;99.90;;;;;;5094373;28;20074;-81
2021/03/08 08:00:31;;;;;;;26.35;19.23;;;9.30;99.90;;;;;;5094141;28;20024;-80
2021/03/08 08:02:57;;;;;;;26.20;18.17;;;9.60;99.90;;;;;;5093838;28;20113;-80
2021/03/08 08:05:23;;;;;;;24.52;18.45;;;9.80;99.90;;;;;;5093904;28;20062;-80
2021/03/08 08:07:51;;;;;;;24.35;18.17;;;9.90;99.90;;;;;;5094236;28;20448;-81
2021/03/08 08:10:18;;;;;;;28.42;18.52;;;10.20;99.90;;;;;;5093155;28;20027;-81
2021/03/08 08:12:47;;;;;;;28.88;18.40;;;10.20;99.90;;;;;;5091271;28;20030;-91
2021/03/08 08:15:16;;;;;;;21.50;16.25;;;10.60;99.90;;;;;;5075661;28;20400;-82
2021/03/08 08:17:43;;;;;;;26.08;17.33;;;10.40;99.90;;;;;;5093884;28;20033;-82
2021/03/08 08:20:11;;;;;;;24.23;17.65;;;10.30;99.90;;;;;;5093484;28;20071;-86
2021/03/08 08:22:43;;;;;;;22.55;17.65;;;10.30;99.90;;;;;;5092992;28;20024;-86
2021/03/08 08:25:13;;;;;;;23.23;17.55;;;10.30;99.90;;;;;;5093777;28;20391;-82
2021/03/08 08:27:39;;;;;;;24.55;17.85;;;10.30;99.90;;;;;;5093241;28;20369;-81
2021/03/08 08:30:06;;;;;;;21.52;16.20;;;9.80;99.90;;;;;;5093612;28;20024;-80
2021/03/08 08:32:53;;;;;;;27.80;17.98;;;10.00;99.90;;;;;;5093644;28;20014;-80
2021/03/08 08:35:33;;;;;;;27.88;16.80;;;10.10;99.90;;;;;;5075119;28;20157;-88
2021/03/08 08:38:14;;;;;;;21.45;16.58;;;10.20;99.90;;;;;;5090771;28;20036;-82
2021/03/08 08:40:42;;;;;;;20.83;16.25;;;10.20;99.90;;;;;;5093554;28;20016;-82
2021/03/08 08:43:14;;;;;;;21.02;16.73;;;9.90;99.90;;;;;;5093117;28;20369;-88
2021/03/08 08:45:44;;;;;;;20.77;15.82;;;9.90;99.90;;;;;;5093529;28;20441;-82
2021/03/08 08:48:10;;;;;;;23.35;16.30;;;10.00;99.90;;;;;;5093593;28;20016;-82
2021/03/08 08:50:53;;;;;;;22.60;16.33;;;9.90;99.90;;;;;;5093027;28;20016;-82
2021/03/08 08:53:30;;;;;;;22.95;16.35;;;10.00;99.90;;;;;;5093359;28;20162;-83
2021/03/08 08:55:56;;;;;;;23.35;16.90;;;9.90;99.90;;;;;;5093070;28;20064;-83
2021/03/08 08:58:23;;;;;;;20.65;16.60;;;10.20;99.90;;;;;;5093352;28;20052;-82
2021/03/08 09:01:07;;;;;;;22.17;16.90;;;9.90;99.90;;;;;;5093222;28;20024;-82
2021/03/08 09:04:01;;;;;;;22.08;16.38;;;10.00;99.90;;;;;;5092719;28;20087;-83
2021/03/08 09:06:45;;;;;;;22.67;17.45;;;10.10;99.90;;;;;;5093161;28;20024;-82
2021/03/08 09:09:13;;;;;;;22.98;16.85;;;10.00;99.90;;;;;;5093241;28;20035;-82
2021/03/08 09:11:42;;;;;;;23.35;17.92;;;11.10;99.90;;;;;;5092708;28;20023;-83
2021/03/08 09:14:37;;;;;;;23.38;17.77;;;11.00;99.90;;;;;;5093261;28;20032;-83
2021/03/08 09:17:24;;;;;;;24.85;17.77;;;10.80;99.90;;;;;;5093338;28;20186;-83
2021/03/08 09:20:13;;;;;;;23.00;17.30;;;10.90;99.90;;;;;;5092909;28;20020;-84
2021/03/08 09:22:52;;;;;;;21.60;17.05;;;11.50;99.90;;;;;;5092868;28;20051;-83
2021/03/08 09:25:29;;;;;;;22.13;16.20;;;11.50;99.90;;;;;;5092855;28;20069;-83
2021/03/08 09:27:58;;;;;;;23.02;16.65;;;11.40;99.90;;;;;;5092981;28;20492;-83
2021/03/08 09:30:25;;;;;;;21.05;16.50;;;11.40;99.90;;;;;;5092941;28;20020;-83
2021/03/08 09:32:53;;;;;;;19.73;15.90;;;11.80;99.90;;;;;;5092674;28;20035;-83
2021/03/08 09:35:25;;;;;;;22.45;16.70;;;12.20;99.90;;;;;;5072853;28;20028;-83
2021/03/08 09:37:56;;;;;;;21.23;16.48;;;12.40;99.90;;;;;;5090013;28;20028;-83
2021/03/08 09:40:29;;;;;;;21.42;16.90;;;12.10;99.90;;;;;;5092787;28;20028;-83
2021/03/08 09:42:57;;;;;;;23.02;17.08;;;12.70;99.90;;;;;;5092815;28;20034;-83
2021/03/08 09:45:34;;;;;;;21.58;16.83;;;12.90;99.90;;;;;;5092949;28;20020;-82
2021/03/08 09:48:02;;;;;;;20.58;16.27;;;12.80;99.90;;;;;;5092441;28;20028;-83
2021/03/08 09:50:33;;;;;;;21.02;17.77;;;14.00;99.90;;;;;;5092539;28;20016;-83
2021/03/08 09:52:59;;;;;;;22.42;17.48;;;12.90;99.90;;;;;;5072633;28;20032;-83
2021/03/08 09:55:36;;;;;;;23.55;17.40;;;13.40;99.90;;;;;;5075550;28;20021;-83
2021/03/08 09:58:17;;;;;;;21.92;17.85;;;13.20;99.90;;;;;;5076234;28;20025;-83
2021/03/08 10:00:44;;;;;;;24.70;18.48;;;13.60;99.90;;;;;;5076436;28;20095;-83
2021/03/08 10:03:11;;;;;;;21.27;17.42;;;14.40;99.90;;;;;;5075812;28;20662;-83
2021/03/08 10:05:48;;;;;;;23.25;17.45;;;13.50;99.90;;;;;;5078047;28;20365;-83
2021/03/08 10:08:15;;;;;;;21.35;17.02;;;13.40;99.90;;;;;;5078506;28;20407;-83
2021/03/08 10:10:52;;;;;;;18.80;16.33;;;13.50;99.90;;;;;;5096002;28;20039;-83
2021/03/08 10:13:19;;;;;;;25.10;18.17;;;13.60;99.90;;;;;;5095937;28;20073;-83
2021/03/08 10:15:48;;;;;;;24.00;18.40;;;14.40;99.90;;;;;;5096134;28;20065;-84
2021/03/08 10:18:17;;;;;;;22.30;17.25;;;16.00;99.90;;;;;;5095926;28;20020;-83
2021/03/08 10:20:49;;;;;;;22.40;17.48;;;15.30;99.90;;;;;;5095872;28;20013;-83
2021/03/08 10:23:26;;;;;;;21.98;16.88;;;18.40;99.90;;;;;;5096409;28;20103;-83
2021/03/08 10:25:53;;;;;;;22.17;17.10;;;17.30;99.90;;;;;;5096145;28;20024;-83
2021/03/08 10:28:19;;;;;;;19.88;17.10;;;16.50;99.90;;;;;;5089924;28;20115;-83
2021/03/08 10:30:46;;;;;;;22.77;17.92;;;19.80;99.90;;;;;;5075368;28;20082;-85
2021/03/08 10:33:19;;;;;;;21.55;17.98;;;18.70;99.90;;;;;;5078296;28;20056;-83
2021/03/08 10:35:54;;;;;;;20.48;18.25;;;19.60;99.90;;;;;;5095731;28;20043;-83
2021/03/08 10:38:27;;;;;;;23.85;18.27;;;18.20;99.90;;;;;;5096017;28;20024;-84
2021/03/08 10:40:56;;;;;;;20.73;17.77;;;16.70;99.90;;;;;;5095797;28;20414;-83
2021/03/08 10:43:23;;;;;;;20.33;17.45;;;20.30;99.90;;;;;;5090936;28;20039;-81
2021/03/08 10:45:50;;;;;;;21.63;18.00;;;19.80;99.90;;;;;;5095054;28;20021;-81
2021/03/08 10:48:16;;;;;;;20.65;17.63;;;17.60;99.90;;;;;;5090126;28;20063;-82
2021/03/08 10:50:51;;;;;;;24.95;17.80;;;17.40;99.90;;;;;;5095600;28;20032;-81
2021/03/08 10:53:21;;;;;;;20.83;17.67;;;17.00;99.90;;;;;;5095607;28;20024;-81
2021/03/08 10:55:47;;;;;;;22.38;18.52;;;16.20;99.90;;;;;;5095498;28;20022;-82
2021/03/08 10:58:14;;;;;;;21.67;17.63;;;16.00;99.90;;;;;;5095475;28;20395;-81
2021/03/08 11:00:42;;;;;;;21.08;17.38;;;15.70;99.90;;;;;;5087585;28;20095;-81
2021/03/08 11:03:36;;;;;;;22.67;17.50;;;15.50;99.90;;;;;;5092575;28;20051;-81
2021/03/08 11:06:06;;;;;;;22.85;18.35;;;15.20;99.90;;;;;;5094480;28;20032;-81
2021/03/08 11:08:33;;;;;;;23.35;18.00;;;14.90;99.90;;;;;;5094881;28;20028;-81
2021/03/08 11:10:59;;;;;;;21.77;18.27;;;15.20;99.90;;;;;;5092530;28;20027;-80
2021/03/08 11:13:33;;;;;;;22.33;19.10;;;15.70;99.90;;;;;;5086500;28;20025;-81
2021/03/08 11:16:17;;;;;;;20.70;17.73;;;16.00;99.90;;;;;;5094242;28;20012;-81
2021/03/08 11:18:44;;;;;;;26.92;18.23;;;16.80;99.90;;;;;;5095130;28;20701;-81
2021/03/08 11:21:31;;;;;;;22.35;18.38;;;19.70;99.90;;;;;;5087873;28;20049;-81
2021/03/08 11:24:15;;;;;;;22.83;17.90;;;24.30;99.90;;;;;;5090577;28;20476;-81
2021/03/08 11:26:43;;;;;;;21.55;18.92;;;23.20;99.90;;;;;;5094861;28;20100;-82
2021/03/08 11:29:22;;;;;;;22.50;18.48;;;24.80;99.90;;;;;;5094231;28;20032;-82
2021/03/08 11:31:54;;;;;;;22.27;19.23;;;25.40;99.90;;;;;;5094490;28;20454;-81
2021/03/08 11:34:42;;;;;;;22.60;19.17;;;28.40;99.90;;;;;;5091552;28;20420;-82
2021/03/08 11:37:16;;;;;;;22.25;18.95;;;28.20;99.90;;;;;;5088758;28;20027;-82
2021/03/08 11:39:44;;;;;;;21.40;18.75;;;28.40;99.90;;;;;;5094853;28;20072;-81
2021/03/08 11:42:11;;;;;;;22.17;18.48;;;29.70;99.90;;;;;;5093997;28;20012;-82
2021/03/08 11:44:37;;;;;;;19.77;17.70;;;30.40;99.90;;;;;;5090214;28;20024;-82
2021/03/08 11:47:04;;;;;;;20.60;18.42;;;31.90;99.90;;;;;;5094583;28;20021;-82
2021/03/08 11:49:29;;;;;;;21.88;19.58;;;29.90;99.90;;;;;;5094113;28;20468;-82
2021/03/08 11:51:55;;;;;;;21.38;19.17;;;30.70;99.90;;;;;;5094324;28;20027;-83
2021/03/08 11:54:20;;;;;;;21.85;19.65;;;25.40;99.90;;;;;;5093933;28;20036;-82
2021/03/08 11:56:46;;;;;;;22.00;19.80;;;23.20;99.90;;;;;;5094078;28;20464;-82
2021/03/08 11:59:12;;;;;;;21.20;19.05;;;22.20;99.90;;;;;;5092911;28;20153;-82
2021/03/08 12:01:38;;;;;;;21.85;19.65;;;24.30;99.90;;;;;;5093825;28;20107;-82
2021/03/08 12:04:04;;;;;;;21.55;19.25;;;25.20;99.90;;;;;;5093901;28;20133;-85
2021/03/08 12:06:29;;;;;;;20.98;18.80;;;26.70;99.90;;;;;;5094215;28;20020;-84
2021/03/08 12:08:55;;;;;;;20.80;18.75;;;26.40;99.90;;;;;;5094283;28;20468;-82
2021/03/08 12:11:21;;;;;;;20.33;18.15;;;23.30;99.90;;;;;;5094181;28;20480;-82
2021/03/08 12:13:46;;;;;;;22.35;17.75;;;26.00;99.90;;;;;;5093597;28;20383;-82
2021/03/08 12:16:12;;;;;;;19.40;17.20;;;25.90;99.90;;;;;;5092680;28;20016;-82
2021/03/08 12:18:38;;;;;;;21.23;18.00;;;24.10;99.90;;;;;;5092400;28;20047;-82
2021/03/08 12:21:04;;;;;;;21.38;18.73;;;22.80;99.90;;;;;;5093632;28;20051;-82
2021/03/08 12:23:31;;;;;;;20.92;18.50;;;21.90;99.90;;;;;;5094058;28;20058;-84
2021/03/08 12:25:56;;;;;;;21.40;19.08;;;20.20;99.90;;;;;;5093878;28;20024;-82
2021/03/08 12:28:22;;;;;;;21.92;19.50;;;20.00;99.90;;;;;;5093326;28;20034;-82
2021/03/08 12:30:48;;;;;;;20.60;18.40;;;19.40;99.90;;;;;;5093746;28;20020;-82
2021/03/08 12:33:27;;;;;;;20.73;18.08;;;19.60;99.90;;;;;;5093133;28;20031;-82
2021/03/08 12:35:52;;;;;;;20.48;17.90;;;21.10;99.90;;;;;;5093652;28;20022;-82
2021/03/08 12:38:18;;;;;;;20.38;18.15;;;20.80;99.90;;;;;;5093043;28;20099;-82
2021/03/08 12:40:45;;;;;;;20.52;18.23;;;24.10;99.90;;;;;;5093497;28;20069;-82
2021/03/08 12:43:11;;;;;;;20.90;17.70;;;23.30;99.90;;;;;;5064299;28;20035;-82
2021/03/08 12:45:36;;;;;;;22.92;18.88;;;20.40;99.90;;;;;;5087097;28;20012;-82